Time;durP1;ratioP1;P1;durP2;ratioP2;P2;SDS_P1;SDS_P2;PMS_P1;PMS_P2;Temp;Humidity;BMP_temperature;BMP_pressure;BME280_temperature;BME280_humidity;BME280_pressure;Samples;Min_cycle;Max_cycle;Signal;HPM_P1;HPM_P2
2022/04/27 00:00:16;;;;;;;5.47;3.70;;;;;;;;;;6326801;22;20038;-57
2022/04/27 00:02:41;;;;;;;7.97;3.58;;;;;;;;;;6330844;22;20003;-58
2022/04/27 00:05:07;;;;;;;6.70;3.20;;;;;;;;;;6328406;22;20014;-58
2022/04/27 00:07:33;;;;;;;8.45;3.60;;;;;;;;;;6323368;22;20011;-58
2022/04/27 00:09:58;;;;;;;5.00;3.33;;;;;;;;;;6321869;22;20209;-59
2022/04/27 00:12:23;;;;;;;12.23;3.10;;;;;;;;;;6325812;22;20007;-58
2022/04/27 00:14:48;;;;;;;6.57;3.35;;;;;;;;;;6301060;22;20010;-59
2022/04/27 00:17:14;;;;;;;6.90;3.22;;;;;;;;;;6329337;22;20019;-59
2022/04/27 00:19:39;;;;;;;6.18;3.92;;;;;;;;;;6328044;22;20074;-59
2022/04/27 00:22:04;;;;;;;5.95;3.97;;;;;;;;;;6330528;22;20015;-59
2022/04/27 00:24:30;;;;;;;6.10;3.97;;;;;;;;;;6327683;22;20809;-58
2022/04/27 00:26:55;;;;;;;9.23;4.03;;;;;;;;;;6329930;22;20552;-58
2022/04/27 00:29:20;;;;;;;6.63;3.45;;;;;;;;;;6327520;22;20465;-57
2022/04/27 00:31:46;;;;;;;9.50;3.60;;;;;;;;;;6330431;22;20036;-59
2022/04/27 00:34:11;;;;;;;6.93;3.75;;;;;;;;;;6326750;22;20003;-59
2022/04/27 00:36:37;;;;;;;5.50;3.70;;;;;;;;;;6330500;22;20091;-58
2022/04/27 00:39:02;;;;;;;6.93;3.70;;;;;;;;;;6327770;22;20019;-59
2022/04/27 00:41:27;;;;;;;7.57;3.92;;;;;;;;;;6329219;22;20018;-58
2022/04/27 00:43:54;;;;;;;8.88;3.63;;;;;;;;;;6326403;22;20448;-59
2022/04/27 00:46:20;;;;;;;13.20;4.68;;;;;;;;;;6328832;22;20066;-57
2022/04/27 00:48:45;;;;;;;5.88;3.22;;;;;;;;;;6326872;22;20019;-59
2022/04/27 00:51:12;;;;;;;6.15;4.03;;;;;;;;;;6329218;22;20007;-59
2022/04/27 00:53:40;;;;;;;6.78;4.15;;;;;;;;;;6328923;22;20018;-58
2022/04/27 00:56:06;;;;;;;9.50;3.47;;;;;;;;;;6330592;22;20500;-56
2022/04/27 00:58:31;;;;;;;7.53;3.83;;;;;;;;;;6327538;22;20010;-58
2022/04/27 01:00:56;;;;;;;7.30;3.75;;;;;;;;;;6329976;22;20041;-58
2022/04/27 01:03:25;;;;;;;6.50;3.88;;;;;;;;;;6327325;22;20055;-57
2022/04/27 01:05:51;;;;;;;5.97;4.35;;;;;;;;;;6329711;22;20063;-58
2022/04/27 01:08:16;;;;;;;4.43;3.22;;;;;;;;;;6327158;22;20106;-58
2022/04/27 01:10:42;;;;;;;14.95;3.95;;;;;;;;;;6330619;22;20007;-58
2022/04/27 01:13:08;;;;;;;6.07;3.65;;;;;;;;;;6327805;22;20015;-57
2022/04/27 01:15:33;;;;;;;8.10;3.30;;;;;;;;;;6329842;22;20035;-58
2022/04/27 01:17:59;;;;;;;6.10;3.80;;;;;;;;;;6327923;22;20041;-58
2022/04/27 01:20:24;;;;;;;6.43;3.83;;;;;;;;;;6328946;22;20181;-58
2022/04/27 01:22:50;;;;;;;8.52;3.85;;;;;;;;;;6328559;22;20031;-58
2022/04/27 01:25:15;;;;;;;6.68;4.13;;;;;;;;;;6328153;22;20011;-56
2022/04/27 01:27:41;;;;;;;9.95;4.47;;;;;;;;;;6327743;22;20108;-54
2022/04/27 01:30:08;;;;;;;10.98;4.35;;;;;;;;;;6301759;22;20011;-58
2022/04/27 01:32:33;;;;;;;7.60;3.95;;;;;;;;;;6299966;22;20013;-57
2022/04/27 01:34:59;;;;;;;6.68;4.25;;;;;;;;;;6329388;22;20038;-58
2022/04/27 01:40:08;;;;;;;9.57;4.60;;;;;;;;;;6327024;22;20033;-58
2022/04/27 01:42:33;;;;;;;8.02;4.45;;;;;;;;;;6325852;22;20042;-58
2022/04/27 01:44:58;;;;;;;7.55;4.75;;;;;;;;;;6326747;22;20102;-58
2022/04/27 01:47:23;;;;;;;11.85;4.22;;;;;;;;;;6324496;22;20070;-58
2022/04/27 01:49:49;;;;;;;9.43;4.47;;;;;;;;;;6328457;22;20086;-59
2022/04/27 01:54:57;;;;;;;8.63;4.40;;;;;;;;;;6326406;22;20025;-58
2022/04/27 01:57:23;;;;;;;8.27;5.35;;;;;;;;;;6325807;22;20015;-59
2022/04/27 01:59:48;;;;;;;10.80;5.07;;;;;;;;;;6327885;22;20011;-59
2022/04/27 02:02:13;;;;;;;8.30;4.35;;;;;;;;;;6325932;22;20007;-57
2022/04/27 02:04:39;;;;;;;13.32;5.43;;;;;;;;;;6327849;22;20007;-59
2022/04/27 02:07:04;;;;;;;10.88;5.03;;;;;;;;;;6326214;22;20094;-58
2022/04/27 02:09:30;;;;;;;10.40;4.70;;;;;;;;;;6323425;22;20018;-57
2022/04/27 02:11:55;;;;;;;10.15;5.53;;;;;;;;;;6327563;22;20061;-57
2022/04/27 02:14:21;;;;;;;7.47;4.13;;;;;;;;;;6318112;22;20663;-53
2022/04/27 02:16:47;;;;;;;9.85;5.10;;;;;;;;;;6328775;22;20044;-58
2022/04/27 02:19:13;;;;;;;10.88;4.82;;;;;;;;;;6324736;22;20014;-58
2022/04/27 02:21:39;;;;;;;11.40;5.45;;;;;;;;;;6327193;22;20025;-58
2022/04/27 02:24:04;;;;;;;12.10;5.25;;;;;;;;;;6327158;22;20018;-58
2022/04/27 02:26:29;;;;;;;8.27;5.00;;;;;;;;;;6324339;22;20041;-57
2022/04/27 02:28:55;;;;;;;8.95;4.60;;;;;;;;;;6327719;22;20502;-58
2022/04/27 02:31:20;;;;;;;13.95;5.15;;;;;;;;;;6325277;22;20020;-57
2022/04/27 02:33:45;;;;;;;10.32;5.30;;;;;;;;;;6326553;22;20010;-58
2022/04/27 02:36:10;;;;;;;14.18;5.25;;;;;;;;;;6326308;22;20030;-56
2022/04/27 02:38:36;;;;;;;11.75;5.28;;;;;;;;;;6326058;22;20085;-57
2022/04/27 02:41:02;;;;;;;9.18;5.43;;;;;;;;;;6327232;22;20030;-57
2022/04/27 03:07:00;;;;;;;11.80;6.13;;;;;;;;;;6196028;22;20028;-58
2022/04/27 03:09:25;;;;;;;10.95;5.57;;;;;;;;;;6184210;23;20025;-57
2022/04/27 03:11:50;;;;;;;13.95;5.32;;;;;;;;;;6181366;23;20009;-57
2022/04/27 03:14:16;;;;;;;11.63;5.30;;;;;;;;;;6183134;23;20017;-57
2022/04/27 03:16:41;;;;;;;9.35;4.93;;;;;;;;;;6183513;23;20645;-57
2022/04/27 03:19:07;;;;;;;8.88;4.88;;;;;;;;;;6185032;23;20027;-57
2022/04/27 03:21:32;;;;;;;11.80;6.18;;;;;;;;;;6182659;23;20013;-57
2022/04/27 03:23:58;;;;;;;11.98;5.68;;;;;;;;;;6185127;23;20014;-58
2022/04/27 03:26:23;;;;;;;13.23;6.25;;;;;;;;;;6182888;23;20024;-56
2022/04/27 03:28:48;;;;;;;13.38;5.43;;;;;;;;;;6185387;23;20009;-56
2022/04/27 03:31:14;;;;;;;10.65;5.30;;;;;;;;;;6183798;23;20016;-55
2022/04/27 03:33:39;;;;;;;13.30;6.63;;;;;;;;;;6186594;23;20013;-57
2022/04/27 03:36:06;;;;;;;10.48;5.35;;;;;;;;;;6181924;23;20044;-58
2022/04/27 03:38:31;;;;;;;10.52;5.45;;;;;;;;;;6184472;23;20036;-56
2022/04/27 03:40:56;;;;;;;11.27;6.07;;;;;;;;;;6182865;23;20040;-57
2022/04/27 03:43:22;;;;;;;9.60;5.72;;;;;;;;;;6182599;23;20494;-57
2022/04/27 03:45:47;;;;;;;14.02;5.80;;;;;;;;;;6174520;23;20735;-57
2022/04/27 03:48:12;;;;;;;10.40;5.32;;;;;;;;;;6182002;23;20021;-57
2022/04/27 03:50:38;;;;;;;14.13;6.10;;;;;;;;;;6180889;23;20016;-58
2022/04/27 03:53:03;;;;;;;11.27;5.55;;;;;;;;;;6183907;23;20009;-57
2022/04/27 03:55:31;;;;;;;11.82;5.45;;;;;;;;;;6182281;23;20101;-58
2022/04/27 03:57:57;;;;;;;11.23;5.55;;;;;;;;;;6175825;23;20019;-57
2022/04/27 04:00:22;;;;;;;12.07;5.75;;;;;;;;;;6176956;23;20005;-57
2022/04/27 04:02:48;;;;;;;10.05;5.57;;;;;;;;;;6176702;23;20009;-58
2022/04/27 04:05:13;;;;;;;10.90;5.40;;;;;;;;;;6182991;23;20028;-57
2022/04/27 04:07:39;;;;;;;11.10;5.70;;;;;;;;;;6207224;23;20008;-57
2022/04/27 04:10:05;;;;;;;10.20;5.90;;;;;;;;;;6206589;23;20818;-58
2022/04/27 04:12:31;;;;;;;15.35;6.20;;;;;;;;;;6205848;23;20033;-56
2022/04/27 04:14:56;;;;;;;9.55;4.65;;;;;;;;;;6205317;23;20004;-58
2022/04/27 04:17:21;;;;;;;11.50;5.63;;;;;;;;;;6205835;23;20013;-58
2022/04/27 04:19:46;;;;;;;9.10;4.57;;;;;;;;;;6207699;23;20414;-56
2022/04/27 04:22:13;;;;;;;10.35;5.35;;;;;;;;;;6205272;23;20021;-58
2022/04/27 04:24:39;;;;;;;8.85;5.55;;;;;;;;;;6204976;23;20019;-57
2022/04/27 04:29:48;;;;;;;12.73;5.55;;;;;;;;;;6205070;23;20016;-58
2022/04/27 04:32:13;;;;;;;15.18;6.20;;;;;;;;;;6205723;23;20012;-58
2022/04/27 04:34:38;;;;;;;13.10;5.95;;;;;;;;;;6205119;23;20060;-57
2022/04/27 04:37:03;;;;;;;10.63;6.22;;;;;;;;;;6206599;23;20190;-58
2022/04/27 04:39:29;;;;;;;12.98;5.03;;;;;;;;;;6204007;23;20136;-58
2022/04/27 04:41:54;;;;;;;12.18;5.70;;;;;;;;;;6207146;23;20151;-57
2022/04/27 04:44:19;;;;;;;11.30;5.65;;;;;;;;;;6203789;23;20072;-57
2022/04/27 04:46:45;;;;;;;10.25;5.68;;;;;;;;;;6205728;23;20473;-58
2022/04/27 04:49:11;;;;;;;13.52;5.97;;;;;;;;;;6204965;23;20008;-58
2022/04/27 04:51:36;;;;;;;13.70;5.22;;;;;;;;;;6206381;23;20032;-57
2022/04/27 04:54:01;;;;;;;10.68;5.50;;;;;;;;;;6205347;23;20064;-58
2022/04/27 04:56:26;;;;;;;14.38;6.90;;;;;;;;;;6205159;23;20032;-58
2022/04/27 04:58:51;;;;;;;11.95;6.72;;;;;;;;;;6206096;23;20043;-58
2022/04/27 05:01:17;;;;;;;17.92;7.05;;;;;;;;;;6205329;23;20435;-58
2022/04/27 05:03:42;;;;;;;8.45;5.75;;;;;;;;;;6206159;23;20016;-57
2022/04/27 05:06:07;;;;;;;11.70;6.40;;;;;;;;;;6204846;23;20055;-58
2022/04/27 05:08:33;;;;;;;11.27;6.10;;;;;;;;;;6204638;23;20005;-58
2022/04/27 05:10:58;;;;;;;11.65;5.88;;;;;;;;;;6179139;23;20051;-58
2022/04/27 05:13:24;;;;;;;11.40;6.55;;;;;;;;;;6205423;23;20017;-59
2022/04/27 05:15:49;;;;;;;11.35;6.43;;;;;;;;;;6205726;23;20031;-58
2022/04/27 05:18:14;;;;;;;17.83;7.07;;;;;;;;;;6205791;23;20021;-57
2022/04/27 05:20:40;;;;;;;15.23;6.43;;;;;;;;;;6206145;23;20036;-57
2022/04/27 05:23:05;;;;;;;12.38;6.40;;;;;;;;;;6205283;23;20004;-58
2022/04/27 05:25:31;;;;;;;12.07;7.38;;;;;;;;;;6205057;23;20413;-58
2022/04/27 05:27:56;;;;;;;13.25;6.82;;;;;;;;;;6206465;23;20009;-58
2022/04/27 05:33:05;;;;;;;15.35;7.40;;;;;;;;;;6206445;23;20139;-58
2022/04/27 05:35:31;;;;;;;21.05;8.65;;;;;;;;;;6204706;23;20326;-57
2022/04/27 05:37:56;;;;;;;17.08;7.55;;;;;;;;;;6180169;23;20032;-58
2022/04/27 05:40:21;;;;;;;20.30;8.10;;;;;;;;;;6204883;23;20059;-58
2022/04/27 05:42:48;;;;;;;14.38;6.97;;;;;;;;;;6206570;23;20001;-59
2022/04/27 05:45:14;;;;;;;15.70;7.82;;;;;;;;;;6204088;23;20020;-57
2022/04/27 05:47:39;;;;;;;13.23;7.15;;;;;;;;;;6205891;23;20039;-58
2022/04/27 05:50:05;;;;;;;15.75;8.23;;;;;;;;;;6205410;23;20012;-58
2022/04/27 05:52:31;;;;;;;14.15;7.28;;;;;;;;;;6206056;23;20176;-58
2022/04/27 05:54:56;;;;;;;17.13;7.35;;;;;;;;;;6204949;23;20005;-59
2022/04/27 05:57:21;;;;;;;13.40;7.05;;;;;;;;;;6205299;23;20020;-57
2022/04/27 05:59:47;;;;;;;23.08;8.50;;;;;;;;;;6205767;23;20004;-60
2022/04/27 06:02:12;;;;;;;13.38;6.93;;;;;;;;;;6205353;23;20084;-58
2022/04/27 06:04:38;;;;;;;14.75;7.50;;;;;;;;;;6205732;23;20017;-57
2022/04/27 06:07:04;;;;;;;14.57;7.07;;;;;;;;;;6204917;23;20036;-57
2022/04/27 06:09:29;;;;;;;18.02;9.63;;;;;;;;;;6204374;23;20012;-58
2022/04/27 06:11:54;;;;;;;25.70;7.70;;;;;;;;;;6205996;23;20020;-58
2022/04/27 06:14:20;;;;;;;18.88;7.57;;;;;;;;;;6178094;23;20075;-57
2022/04/27 06:16:45;;;;;;;17.33;8.35;;;;;;;;;;6201065;23;20005;-58
2022/04/27 06:19:11;;;;;;;18.80;7.93;;;;;;;;;;6196434;23;20043;-57
2022/04/27 06:21:37;;;;;;;19.23;8.07;;;;;;;;;;6197282;23;20404;-58
2022/04/27 06:24:04;;;;;;;18.52;7.63;;;;;;;;;;6197876;23;20008;-58
2022/04/27 06:26:33;;;;;;;16.67;6.65;;;;;;;;;;6202316;23;20175;-58
2022/04/27 06:28:58;;;;;;;13.43;6.60;;;;;;;;;;6205626;23;20013;-58
2022/04/27 06:31:23;;;;;;;16.48;6.90;;;;;;;;;;6203179;23;20016;-58
2022/04/27 06:33:48;;;;;;;13.70;7.10;;;;;;;;;;6203954;23;20083;-58
2022/04/27 06:36:14;;;;;;;13.55;6.82;;;;;;;;;;6204225;23;20051;-58
2022/04/27 06:38:39;;;;;;;12.32;7.35;;;;;;;;;;6203629;23;20019;-58
2022/04/27 06:41:05;;;;;;;14.93;6.15;;;;;;;;;;6205809;23;20678;-59
2022/04/27 06:43:31;;;;;;;14.85;6.65;;;;;;;;;;6203153;23;20021;-57
2022/04/27 06:45:58;;;;;;;15.82;6.90;;;;;;;;;;6205489;23;20024;-57
2022/04/27 06:48:23;;;;;;;36.72;7.70;;;;;;;;;;6202004;23;20039;-59
2022/04/27 06:50:49;;;;;;;11.50;6.55;;;;;;;;;;6206210;23;20013;-62
2022/04/27 06:53:14;;;;;;;13.70;6.25;;;;;;;;;;6203503;23;20021;-58
2022/04/27 06:55:39;;;;;;;16.70;6.65;;;;;;;;;;6205587;23;20012;-58
2022/04/27 06:58:05;;;;;;;14.30;5.65;;;;;;;;;;6203570;23;20437;-58
2022/04/27 07:00:30;;;;;;;16.90;5.93;;;;;;;;;;6204469;23;20012;-57
2022/04/27 07:02:55;;;;;;;16.25;6.25;;;;;;;;;;6176088;23;20064;-57
2022/04/27 07:05:23;;;;;;;15.60;6.57;;;;;;;;;;6204666;23;20035;-56
2022/04/27 07:07:48;;;;;;;10.98;5.38;;;;;;;;;;6203452;23;20019;-58
2022/04/27 07:10:14;;;;;;;12.20;5.75;;;;;;;;;;6205075;23;20021;-58
2022/04/27 07:12:40;;;;;;;13.30;5.57;;;;;;;;;;6203692;23;20009;-58
2022/04/27 07:15:06;;;;;;;14.85;5.25;;;;;;;;;;6200576;23;20043;-56
2022/04/27 07:17:31;;;;;;;11.32;5.68;;;;;;;;;;6202476;23;20024;-58
2022/04/27 07:19:57;;;;;;;9.00;5.22;;;;;;;;;;6205502;23;20012;-58
2022/04/27 07:22:22;;;;;;;11.63;4.80;;;;;;;;;;6197365;23;20024;-58
2022/04/27 07:24:49;;;;;;;8.35;4.53;;;;;;;;;;6204840;23;20814;-57
2022/04/27 07:27:15;;;;;;;8.32;4.47;;;;;;;;;;6199170;23;20479;-58
2022/04/27 07:29:40;;;;;;;11.02;5.07;;;;;;;;;;6205851;23;20013;-58
2022/04/27 07:32:06;;;;;;;5.78;3.80;;;;;;;;;;6203684;23;20030;-59
2022/04/27 07:34:31;;;;;;;12.27;5.40;;;;;;;;;;6180099;23;20004;-58
2022/04/27 07:36:58;;;;;;;7.68;4.03;;;;;;;;;;6206570;23;20016;-59
2022/04/27 07:39:23;;;;;;;8.50;3.70;;;;;;;;;;6207239;23;20013;-58
2022/04/27 07:41:48;;;;;;;6.35;3.90;;;;;;;;;;6205905;23;20043;-60
2022/04/27 07:44:14;;;;;;;12.75;4.20;;;;;;;;;;6206724;23;20793;-57
2022/04/27 07:46:39;;;;;;;9.68;4.00;;;;;;;;;;6205015;23;20096;-58
2022/04/27 07:49:04;;;;;;;14.13;5.13;;;;;;;;;;6207624;23;20013;-58
2022/04/27 07:51:30;;;;;;;9.82;4.28;;;;;;;;;;6204035;23;20023;-58
2022/04/27 07:53:55;;;;;;;6.82;3.40;;;;;;;;;;6205931;23;20669;-57
2022/04/27 07:56:20;;;;;;;7.60;3.65;;;;;;;;;;6200190;23;20027;-58
2022/04/27 07:58:45;;;;;;;7.47;4.00;;;;;;;;;;6203238;23;20068;-58
2022/04/27 08:01:11;;;;;;;8.93;4.28;;;;;;;;;;6201754;23;20012;-57
2022/04/27 08:03:36;;;;;;;12.70;4.15;;;;;;;;;;6202675;23;20028;-57
2022/04/27 08:06:03;;;;;;;14.93;4.43;;;;;;;;;;6201313;23;20050;-56
2022/04/27 08:08:28;;;;;;;12.38;4.53;;;;;;;;;;6200256;23;20039;-57
2022/04/27 08:10:53;;;;;;;18.35;4.45;;;;;;;;;;6175089;23;20012;-57
2022/04/27 08:13:18;;;;;;;11.30;3.13;;;;;;;;;;6189750;23;20809;-57
2022/04/27 08:15:44;;;;;;;6.38;2.97;;;;;;;;;;6200863;23;20013;-57
2022/04/27 08:18:10;;;;;;;7.00;3.38;;;;;;;;;;6201064;23;20095;-57
2022/04/27 08:23:23;;;;;;;10.98;3.75;;;;;;;;;;6204912;23;20345;-57
2022/04/27 08:25:49;;;;;;;9.45;3.10;;;;;;;;;;6206385;23;20013;-57
2022/04/27 08:28:16;;;;;;;7.50;3.80;;;;;;;;;;6203977;23;20027;-57
2022/04/27 08:30:43;;;;;;;8.10;4.00;;;;;;;;;;6206066;23;20470;-56
2022/04/27 08:33:09;;;;;;;9.13;3.63;;;;;;;;;;6205737;23;20013;-55
2022/04/27 08:35:36;;;;;;;7.85;2.67;;;;;;;;;;6206586;23;20040;-58
2022/04/27 08:38:02;;;;;;;10.85;4.43;;;;;;;;;;6206290;23;20004;-56
2022/04/27 08:40:27;;;;;;;10.02;2.53;;;;;;;;;;6204942;23;20264;-58
2022/04/27 08:42:53;;;;;;;6.35;3.15;;;;;;;;;;6206262;23;20018;-58
2022/04/27 08:45:19;;;;;;;14.93;3.15;;;;;;;;;;6205230;23;20021;-58
2022/04/27 08:47:45;;;;;;;4.88;2.65;;;;;;;;;;6206042;23;20016;-56
2022/04/27 08:50:11;;;;;;;4.50;2.78;;;;;;;;;;6205660;23;20029;-56
2022/04/27 08:52:37;;;;;;;10.57;3.13;;;;;;;;;;6206578;23;20028;-57
2022/04/27 08:55:03;;;;;;;5.88;3.03;;;;;;;;;;6205700;23;20008;-58
2022/04/27 08:57:28;;;;;;;5.47;3.15;;;;;;;;;;6205227;23;20391;-58
2022/04/27 08:59:53;;;;;;;9.32;3.75;;;;;;;;;;6205496;23;20004;-58
2022/04/27 09:02:28;;;;;;;12.27;3.85;;;;;;;;;;6205226;23;20016;-57
2022/04/27 09:05:06;;;;;;;10.45;3.35;;;;;;;;;;6205184;23;20047;-57
2022/04/27 09:07:35;;;;;;;8.48;3.97;;;;;;;;;;6204659;23;20086;-57
2022/04/27 09:10:00;;;;;;;9.85;3.35;;;;;;;;;;6206002;23;20517;-58
2022/04/27 09:12:25;;;;;;;13.95;3.38;;;;;;;;;;6203988;23;20013;-56
2022/04/27 09:14:51;;;;;;;5.30;2.78;;;;;;;;;;6206063;23;20008;-57
2022/04/27 09:23:19;;;;;;;11.85;2.90;;;;;;;;;;6204514;23;20039;-57
2022/04/27 09:25:44;;;;;;;5.10;3.63;;;;;;;;;;6206290;23;20025;-57
2022/04/27 09:28:10;;;;;;;12.65;3.60;;;;;;;;;;6202944;23;20040;-50
2022/04/27 09:30:35;;;;;;;9.05;3.30;;;;;;;;;;6206362;23;20015;-56
2022/04/27 09:33:00;;;;;;;4.18;2.63;;;;;;;;;;6203254;23;20012;-58
2022/04/27 09:35:32;;;;;;;13.40;4.65;;;;;;;;;;6201399;23;20541;-57
2022/04/27 09:38:10;;;;;;;9.73;4.40;;;;;;;;;;6205696;23;20079;-58
2022/04/27 09:40:49;;;;;;;5.07;3.08;;;;;;;;;;6203058;23;20367;-58
2022/04/27 09:43:15;;;;;;;8.23;3.75;;;;;;;;;;6204875;23;20124;-58
2022/04/27 09:45:41;;;;;;;9.63;4.25;;;;;;;;;;6195772;23;20455;-44
2022/04/27 09:48:08;;;;;;;12.18;3.40;;;;;;;;;;6204572;23;20016;-44
2022/04/27 09:50:55;;;;;;;6.78;3.22;;;;;;;;;;6202221;23;20039;-44
2022/04/27 09:53:20;;;;;;;6.95;3.20;;;;;;;;;;6202698;23;20510;-43
2022/04/27 09:55:47;;;;;;;9.02;4.82;;;;;;;;;;6205104;23;20019;-46
2022/04/27 09:58:14;;;;;;;8.00;2.92;;;;;;;;;;6203470;23;20008;-44
2022/04/27 10:00:43;;;;;;;7.88;3.35;;;;;;;;;;6206138;23;20013;-44
2022/04/27 10:03:13;;;;;;;6.47;3.30;;;;;;;;;;6203485;23;20016;-45
2022/04/27 10:05:39;;;;;;;4.88;3.22;;;;;;;;;;6205312;23;20023;-44
2022/04/27 10:08:05;;;;;;;5.65;3.25;;;;;;;;;;6203314;23;20016;-45
2022/04/27 10:10:31;;;;;;;7.07;2.65;;;;;;;;;;6205553;23;20020;-45
2022/04/27 10:12:58;;;;;;;6.00;2.80;;;;;;;;;;6204709;23;20004;-43
2022/04/27 10:15:23;;;;;;;5.13;2.50;;;;;;;;;;6197601;23;20020;-43
2022/04/27 10:17:49;;;;;;;6.95;2.78;;;;;;;;;;6204312;23;20074;-44
2022/04/27 10:20:26;;;;;;;4.55;3.17;;;;;;;;;;6204423;23;20020;-45
2022/04/27 10:22:52;;;;;;;11.20;3.35;;;;;;;;;;6205483;23;20013;-43
2022/04/27 10:25:18;;;;;;;8.30;3.47;;;;;;;;;;6202975;23;20020;-43
2022/04/27 10:27:44;;;;;;;7.28;2.97;;;;;;;;;;6205425;23;20005;-44
2022/04/27 10:30:14;;;;;;;7.32;2.55;;;;;;;;;;6202528;23;20016;-47
2022/04/27 10:32:45;;;;;;;7.00;2.45;;;;;;;;;;6206355;23;20017;-45
2022/04/27 10:35:22;;;;;;;5.20;2.45;;;;;;;;;;6203497;23;20017;-45
2022/04/27 10:37:54;;;;;;;5.47;2.72;;;;;;;;;;6205362;23;20036;-44
2022/04/27 10:40:25;;;;;;;3.03;2.10;;;;;;;;;;6203800;23;20009;-45
2022/04/27 10:42:50;;;;;;;4.10;2.58;;;;;;;;;;6204969;23;20012;-43
2022/04/27 10:45:21;;;;;;;11.05;3.78;;;;;;;;;;6203631;23;20044;-44
2022/04/27 10:47:46;;;;;;;3.65;2.00;;;;;;;;;;6195384;23;20004;-43
2022/04/27 10:50:19;;;;;;;8.82;2.53;;;;;;;;;;6169867;23;20047;-43
2022/04/27 10:52:50;;;;;;;8.13;2.88;;;;;;;;;;6195581;23;20463;-48
2022/04/27 10:55:35;;;;;;;7.38;2.92;;;;;;;;;;6183377;23;20004;-43
2022/04/27 10:58:19;;;;;;;7.78;2.67;;;;;;;;;;6160032;23;20075;-45
2022/04/27 11:01:03;;;;;;;4.15;2.30;;;;;;;;;;6197934;23;20108;-46
2022/04/27 11:03:28;;;;;;;10.80;2.70;;;;;;;;;;6199590;23;20067;-44
2022/04/27 11:06:01;;;;;;;6.25;2.47;;;;;;;;;;6204634;23;20024;-43
2022/04/27 11:08:32;;;;;;;10.85;3.00;;;;;;;;;;6202808;23;20013;-46
2022/04/27 11:11:01;;;;;;;4.10;2.45;;;;;;;;;;6200914;23;20028;-45
2022/04/27 11:13:29;;;;;;;5.37;2.10;;;;;;;;;;6200172;23;20109;-45
2022/04/27 11:16:05;;;;;;;8.38;2.83;;;;;;;;;;6202908;23;20008;-43
2022/04/27 11:18:46;;;;;;;6.22;2.40;;;;;;;;;;6206869;23;20017;-44
2022/04/27 11:21:13;;;;;;;6.78;2.67;;;;;;;;;;6198995;23;20025;-45
2022/04/27 11:23:39;;;;;;;6.07;2.40;;;;;;;;;;6176602;23;20020;-45
2022/04/27 11:26:06;;;;;;;13.07;2.70;;;;;;;;;;6203425;23;20016;-43
2022/04/27 11:28:31;;;;;;;6.13;2.35;;;;;;;;;;6199620;23;20013;-45
2022/04/27 11:30:57;;;;;;;5.38;2.40;;;;;;;;;;6175853;23;20008;-43
2022/04/27 11:33:22;;;;;;;3.25;2.53;;;;;;;;;;6199214;23;20071;-44
2022/04/27 11:35:49;;;;;;;7.35;2.72;;;;;;;;;;6202329;23;20051;-44
2022/04/27 11:38:18;;;;;;;6.93;3.05;;;;;;;;;;6200046;23;20456;-45
2022/04/27 11:40:44;;;;;;;7.32;3.63;;;;;;;;;;6202624;23;20043;-44
2022/04/27 11:43:09;;;;;;;7.13;3.05;;;;;;;;;;6200790;23;20012;-44
2022/04/27 11:45:35;;;;;;;5.55;2.38;;;;;;;;;;6200933;23;20021;-45
2022/04/27 11:48:01;;;;;;;7.32;2.80;;;;;;;;;;6201747;23;20079;-43
2022/04/27 11:50:29;;;;;;;5.32;2.85;;;;;;;;;;6201954;23;20023;-45
2022/04/27 11:53:13;;;;;;;3.70;2.10;;;;;;;;;;6201137;23;20358;-43
2022/04/27 11:55:39;;;;;;;4.93;2.88;;;;;;;;;;6201464;23;20017;-46
2022/04/27 11:58:05;;;;;;;6.97;3.08;;;;;;;;;;6198724;23;20013;-47
2022/04/27 12:00:31;;;;;;;5.60;2.53;;;;;;;;;;6201774;23;20021;-45
2022/04/27 12:03:04;;;;;;;4.45;2.20;;;;;;;;;;6193401;23;20009;-44
2022/04/27 12:05:38;;;;;;;6.32;2.78;;;;;;;;;;6208330;23;20020;-44
2022/04/27 12:08:07;;;;;;;2.70;1.90;;;;;;;;;;6235809;23;20034;-43
2022/04/27 12:10:39;;;;;;;4.70;2.47;;;;;;;;;;6233481;23;20028;-45
2022/04/27 12:13:05;;;;;;;4.47;2.47;;;;;;;;;;6236099;23;20195;-43
2022/04/27 12:15:31;;;;;;;9.85;3.03;;;;;;;;;;6230968;23;20681;-43
2022/04/27 12:17:56;;;;;;;7.47;2.80;;;;;;;;;;6228111;23;20016;-43
2022/04/27 12:20:26;;;;;;;8.55;2.78;;;;;;;;;;6235982;23;20076;-46
2022/04/27 12:23:02;;;;;;;5.15;3.00;;;;;;;;;;6235907;23;20016;-44
2022/04/27 12:25:55;;;;;;;8.20;3.00;;;;;;;;;;6235567;23;20075;-45
2022/04/27 12:28:32;;;;;;;10.45;2.80;;;;;;;;;;6230978;23;20083;-44
2022/04/27 12:31:08;;;;;;;8.23;2.83;;;;;;;;;;6236870;23;20334;-44
2022/04/27 12:33:58;;;;;;;6.55;3.88;;;;;;;;;;6236247;23;20079;-45
2022/04/27 12:39:23;;;;;;;18.30;2.80;;;;;;;;;;6233536;23;20039;-45
2022/04/27 12:41:50;;;;;;;7.97;2.80;;;;;;;;;;6236427;23;20074;-45
2022/04/27 12:44:16;;;;;;;8.32;2.70;;;;;;;;;;6206338;23;20012;-47
2022/04/27 12:47:00;;;;;;;11.77;3.60;;;;;;;;;;6235671;23;20008;-49
2022/04/27 12:49:27;;;;;;;8.10;2.55;;;;;;;;;;6234523;23;20016;-47
2022/04/27 12:51:52;;;;;;;5.63;3.22;;;;;;;;;;6209803;23;20019;-44
2022/04/27 12:54:18;;;;;;;8.98;3.20;;;;;;;;;;6234881;23;20035;-45
2022/04/27 12:56:44;;;;;;;3.33;2.78;;;;;;;;;;6235800;23;20710;-45
2022/04/27 12:59:11;;;;;;;7.00;2.90;;;;;;;;;;6236692;23;20381;-43
2022/04/27 13:01:36;;;;;;;7.07;3.53;;;;;;;;;;6235236;23;20094;-44
2022/04/27 13:04:02;;;;;;;3.70;2.40;;;;;;;;;;6236118;23;20772;-46
2022/04/27 13:06:30;;;;;;;8.00;3.88;;;;;;;;;;6234556;23;20541;-47
2022/04/27 13:08:56;;;;;;;3.33;2.63;;;;;;;;;;6236063;23;20068;-45
2022/04/27 13:14:05;;;;;;;8.82;3.25;;;;;;;;;;6235334;23;20023;-46
2022/04/27 13:16:30;;;;;;;11.07;3.45;;;;;;;;;;6235676;23;20385;-44
2022/04/27 13:18:56;;;;;;;6.07;2.85;;;;;;;;;;6234683;23;20050;-45
2022/04/27 13:21:22;;;;;;;4.07;3.00;;;;;;;;;;6231938;23;20381;-48
2022/04/27 13:23:47;;;;;;;6.28;3.47;;;;;;;;;;6236266;23;20008;-45
2022/04/27 13:26:12;;;;;;;7.25;3.17;;;;;;;;;;6232687;23;20382;-45
2022/04/27 13:28:40;;;;;;;7.65;2.83;;;;;;;;;;6236632;23;20016;-44
2022/04/27 13:31:06;;;;;;;7.30;3.15;;;;;;;;;;6233771;23;20008;-44
2022/04/27 13:33:31;;;;;;;8.30;3.67;;;;;;;;;;6235601;23;20066;-44
2022/04/27 13:35:57;;;;;;;10.07;3.03;;;;;;;;;;6234124;23;20129;-45
2022/04/27 13:38:23;;;;;;;10.02;3.45;;;;;;;;;;6234500;23;20158;-45
2022/04/27 13:40:50;;;;;;;6.65;3.15;;;;;;;;;;6234783;23;20012;-45
2022/04/27 13:43:16;;;;;;;6.88;3.45;;;;;;;;;;6235334;23;20016;-45
2022/04/27 13:45:41;;;;;;;10.20;3.40;;;;;;;;;;6234000;23;20090;-47
2022/04/27 13:48:07;;;;;;;6.78;3.47;;;;;;;;;;6235403;23;20071;-44
2022/04/27 13:50:32;;;;;;;9.45;4.00;;;;;;;;;;6232416;23;20023;-44
2022/04/27 13:52:58;;;;;;;18.77;3.85;;;;;;;;;;6235000;23;20012;-45
2022/04/27 13:55:23;;;;;;;14.23;3.40;;;;;;;;;;6234373;23;20074;-46
2022/04/27 13:57:49;;;;;;;9.88;3.67;;;;;;;;;;6236043;23;20019;-44
2022/04/27 14:00:15;;;;;;;9.70;3.33;;;;;;;;;;6229583;23;20008;-43
2022/04/27 14:02:40;;;;;;;7.82;4.07;;;;;;;;;;6233918;23;20012;-44
2022/04/27 14:05:07;;;;;;;4.07;3.17;;;;;;;;;;6234266;23;20035;-44
2022/04/27 14:07:35;;;;;;;8.23;3.03;;;;;;;;;;6233362;23;20159;-44
2022/04/27 14:10:00;;;;;;;17.00;3.28;;;;;;;;;;6235718;23;20004;-45
2022/04/27 14:15:10;;;;;;;9.75;4.07;;;;;;;;;;6235015;23;20043;-45
2022/04/27 14:20:20;;;;;;;8.35;3.83;;;;;;;;;;6235662;23;20074;-43
2022/04/27 14:22:45;;;;;;;10.38;3.00;;;;;;;;;;6236152;23;20012;-45
2022/04/27 14:25:11;;;;;;;3.60;2.47;;;;;;;;;;6233439;23;20039;-45
2022/04/27 14:27:36;;;;;;;11.65;2.85;;;;;;;;;;6235328;23;20376;-45
2022/04/27 14:30:02;;;;;;;4.97;2.65;;;;;;;;;;6233362;23;20008;-45
2022/04/27 14:32:27;;;;;;;5.35;2.75;;;;;;;;;;6234408;23;20008;-46
2022/04/27 14:34:52;;;;;;;4.72;3.25;;;;;;;;;;6234011;23;20399;-45
2022/04/27 14:37:18;;;;;;;13.65;3.40;;;;;;;;;;6233786;23;20043;-46
2022/04/27 14:39:43;;;;;;;10.90;3.53;;;;;;;;;;6234131;23;20014;-45
2022/04/27 14:42:09;;;;;;;9.27;3.28;;;;;;;;;;6235677;23;20013;-45
2022/04/27 14:44:35;;;;;;;11.70;3.15;;;;;;;;;;6233425;23;20012;-44
2022/04/27 14:47:00;;;;;;;7.65;3.00;;;;;;;;;;6235402;23;20918;-44
2022/04/27 14:49:25;;;;;;;5.95;3.30;;;;;;;;;;6233827;23;20023;-44
2022/04/27 14:51:51;;;;;;;6.03;2.78;;;;;;;;;;6235745;23;20016;-44
2022/04/27 14:54:16;;;;;;;6.65;3.42;;;;;;;;;;6234503;23;20016;-46
2022/04/27 14:56:41;;;;;;;5.32;3.05;;;;;;;;;;6235151;23;20004;-47
2022/04/27 14:59:07;;;;;;;8.32;2.78;;;;;;;;;;6235234;23;20012;-44
2022/04/27 15:01:32;;;;;;;9.88;3.33;;;;;;;;;;6233603;23;20015;-44
2022/04/27 15:03:58;;;;;;;3.70;2.97;;;;;;;;;;6235534;23;20090;-46
2022/04/27 15:06:24;;;;;;;10.30;3.95;;;;;;;;;;6232798;23;20028;-44
2022/04/27 15:08:49;;;;;;;7.47;4.05;;;;;;;;;;6236368;23;20163;-44
2022/04/27 15:11:14;;;;;;;19.33;5.28;;;;;;;;;;6232218;23;20012;-45
2022/04/27 15:13:40;;;;;;;10.82;5.30;;;;;;;;;;6233737;23;20008;-45
2022/04/27 15:16:05;;;;;;;11.85;5.03;;;;;;;;;;6234302;23;20005;-45
2022/04/27 15:18:30;;;;;;;8.02;4.47;;;;;;;;;;6234706;23;20008;-44
2022/04/27 15:23:39;;;;;;;7.68;5.28;;;;;;;;;;6234223;23;20110;-44
2022/04/27 15:26:04;;;;;;;10.38;5.22;;;;;;;;;;6234862;23;20100;-44
2022/04/27 15:28:30;;;;;;;8.00;5.63;;;;;;;;;;6230658;23;20008;-45
2022/04/27 15:30:55;;;;;;;13.10;6.18;;;;;;;;;;6235997;23;20004;-44